Grete Maersk — OYCY2 — position and weather

sailwx.info

Track history (hours):
 
Tides and Currents Weather Stations Pressure Air Temp Water Temp Dewpoint Dewpoint Depression Visibility Wind Speed Wind Dir Waves Ship Positions

Grete Maersk

Last reported at 2015-Jul-03 06:23 UTC. Time now 2015-Aug-03 17:13 UTC.
Position N 36°01' E 120°27'.
Warning: this ship's position is 31 days out of date.

MMSI: 218824136.

Date/timePositionNaut miles runAvg speedWind from/ knotsBaromVisibWave heightAir tempDewpointWater temp
2015-Jul-03 06:23N 36°01' E 120°27'38 2.4
2015-Jul-02 14:25N 36°06' E 121°12'0 0.0
2015-Jul-02 13:31N 36°06' E 121°12'0 0.0
2015-Jul-02 12:31N 36°06' E 121°12'0 0.0
2015-Jul-01 23:26N 36°06' E 121°12'  
2015-Jun-29 12:28N 30°36' E 122°56'4214.5
2015-Jun-29 09:33N 30°35' E 122°07'4 0.4
2015-Jun-28 23:11N 30°38' E 122°03'1 0.8
2015-Jun-28 22:33N 30°38' E 122°02'6 6.4
2015-Jun-28 21:33N 30°34' E 122°09'10 9.6
2015-Jun-28 20:33N 30°33' E 122°20'10 8.9
2015-Jun-28 19:28N 30°32' E 122°31'9 8.6
2015-Jun-28 18:27N 30°30' E 122°40'8 8.9
2015-Jun-28 17:32N 30°26' E 122°49'10 9.5
2015-Jun-28 16:28N 30°20' E 122°58'31 7.8
2015-Jun-28 12:30N 29°50' E 122°49'1310.3
2015-Jun-28 11:13N 29°41' E 122°38'3 4.5
2015-Jun-28 10:31N 29°40' E 122°35'6 6.3
2015-Jun-28 09:31N 29°41' E 122°28'6 6.6
2015-Jun-28 08:33N 29°44' E 122°21'5 5.3
2015-Jun-28 07:33N 29°47' E 122°16'6 6.0
2015-Jun-28 06:33N 29°50' E 122°10'9 9.4
2015-Jun-28 05:32N 29°46' E 122°00'0 0.0
2015-Jun-26 23:33N 29°46' E 122°01'0 0.0
2015-Jun-26 21:27N 29°46' E 122°01'0 0.0
2015-Jun-26 20:33N 29°46' E 122°01'1 0.1
2015-Jun-26 11:31N 29°47' E 122°02'1010.9
2015-Jun-26 10:33N 29°49' E 122°13'10 9.8
2015-Jun-26 09:32N 29°44' E 122°23'11 9.4
2015-Jun-26 08:22N 29°38' E 122°33'35411.9
2015-Jun-25 02:33N 24°34' E 119°10'1413.3
2015-Jun-25 01:29N 24°25' E 118°58'3612.3
2015-Jun-24 22:31N 24°03' E 118°26'1212.2
2015-Jun-24 21:33N 23°56' E 118°15'1312.7
2015-Jun-24 20:32N 23°48' E 118°04'1313.0
2015-Jun-24 19:33N 23°39' E 117°54'1513.8
2015-Jun-24 18:26N 23°28' E 117°42'3813.0
2015-Jun-24 15:28N 23°01' E 117°13'1312.4
2015-Jun-24 14:26N 22°53' E 117°01'18212.2
2015-Jun-23 23:29N 22°09' E 113°50'1111.9
2015-Jun-23 22:33N 22°20' E 113°49'8 8.4
2015-Jun-23 21:33N 22°27' E 113°53'0 0.1
2015-Jun-23 20:33N 22°28' E 113°53'0 0.0
2015-Jun-23 19:33N 22°28' E 113°53'0 0.0
2015-Jun-23 19:03N 22°28' E 113°53'  
Track history (hours):
 
Tides and Currents Weather Stations Pressure Air Temp Water Temp Dewpoint Dewpoint Depression Visibility Wind Speed Wind Dir Waves Ship Positions

Grete Maersk

Last reported at 2015-Jul-03 06:23 UTC. Time now 2015-Aug-03 17:13 UTC.
Position N 36°01' E 120°27'.
Warning: this ship's position is 31 days out of date.

MMSI: 218824136.

Date/timePositionNaut miles runAvg speedWind from/ knotsBaromVisibWave heightAir tempDewpointWater temp
2015-Jul-03 06:23N 36°01' E 120°27'38 2.4
2015-Jul-02 14:25N 36°06' E 121°12'0 0.0
2015-Jul-02 13:31N 36°06' E 121°12'0 0.0
2015-Jul-02 12:31N 36°06' E 121°12'0 0.0
2015-Jul-01 23:26N 36°06' E 121°12'  
2015-Jun-29 12:28N 30°36' E 122°56'4214.5
2015-Jun-29 09:33N 30°35' E 122°07'4 0.4
2015-Jun-28 23:11N 30°38' E 122°03'1 0.8
2015-Jun-28 22:33N 30°38' E 122°02'6 6.4
2015-Jun-28 21:33N 30°34' E 122°09'10 9.6
2015-Jun-28 20:33N 30°33' E 122°20'10 8.9
2015-Jun-28 19:28N 30°32' E 122°31'9 8.6
2015-Jun-28 18:27N 30°30' E 122°40'8 8.9
2015-Jun-28 17:32N 30°26' E 122°49'10 9.5
2015-Jun-28 16:28N 30°20' E 122°58'31 7.8
2015-Jun-28 12:30N 29°50' E 122°49'1310.3
2015-Jun-28 11:13N 29°41' E 122°38'3 4.5
2015-Jun-28 10:31N 29°40' E 122°35'6 6.3
2015-Jun-28 09:31N 29°41' E 122°28'6 6.6
2015-Jun-28 08:33N 29°44' E 122°21'5 5.3
2015-Jun-28 07:33N 29°47' E 122°16'6 6.0
2015-Jun-28 06:33N 29°50' E 122°10'9 9.4
2015-Jun-28 05:32N 29°46' E 122°00'0 0.0
2015-Jun-26 23:33N 29°46' E 122°01'0 0.0
2015-Jun-26 21:27N 29°46' E 122°01'0 0.0
2015-Jun-26 20:33N 29°46' E 122°01'1 0.1
2015-Jun-26 11:31N 29°47' E 122°02'1010.9
2015-Jun-26 10:33N 29°49' E 122°13'10 9.8
2015-Jun-26 09:32N 29°44' E 122°23'11 9.4
2015-Jun-26 08:22N 29°38' E 122°33'35411.9
2015-Jun-25 02:33N 24°34' E 119°10'1413.3
2015-Jun-25 01:29N 24°25' E 118°58'3612.3
2015-Jun-24 22:31N 24°03' E 118°26'1212.2
2015-Jun-24 21:33N 23°56' E 118°15'1312.7
2015-Jun-24 20:32N 23°48' E 118°04'1313.0
2015-Jun-24 19:33N 23°39' E 117°54'1513.8
2015-Jun-24 18:26N 23°28' E 117°42'3813.0
2015-Jun-24 15:28N 23°01' E 117°13'1312.4
2015-Jun-24 14:26N 22°53' E 117°01'18212.2
2015-Jun-23 23:29N 22°09' E 113°50'1111.9
2015-Jun-23 22:33N 22°20' E 113°49'8 8.4
2015-Jun-23 21:33N 22°27' E 113°53'0 0.1
2015-Jun-23 20:33N 22°28' E 113°53'0 0.0
2015-Jun-23 19:33N 22°28' E 113°53'0 0.0
2015-Jun-23 19:03N 22°28' E 113°53'  

Dump ship's entire track history